createdAt,value
2017-12-15T00:01:36.175Z,97.11
2017-12-15T00:04:03.853Z,97.07
2017-12-15T00:06:31.599Z,97.05
2017-12-15T00:08:59.480Z,97.01
2017-12-15T00:11:27.169Z,96.90
2017-12-15T00:13:54.825Z,96.85
2017-12-15T00:16:22.448Z,96.83
2017-12-15T00:18:50.119Z,96.80
2017-12-15T00:21:17.800Z,96.75
2017-12-15T00:23:45.463Z,96.71
2017-12-15T00:26:13.128Z,96.70
2017-12-15T00:28:40.792Z,96.70
2017-12-15T00:31:08.481Z,96.76
2017-12-15T00:33:36.151Z,96.80
2017-12-15T00:36:03.844Z,96.83
2017-12-15T00:38:31.601Z,96.85
2017-12-15T00:40:59.295Z,96.83
2017-12-15T00:43:27.029Z,96.78
2017-12-15T00:45:54.653Z,96.70
2017-12-15T00:48:22.381Z,96.65
2017-12-15T00:50:50.021Z,96.57
2017-12-15T00:53:17.765Z,96.45
2017-12-15T00:55:45.387Z,96.38
2017-12-15T00:58:13.059Z,96.34
2017-12-15T01:00:40.681Z,96.28
2017-12-15T01:03:08.440Z,96.29
2017-12-15T01:05:36.124Z,96.23
2017-12-15T01:08:03.788Z,96.17
2017-12-15T01:10:31.471Z,96.14
2017-12-15T01:12:59.203Z,96.10
2017-12-15T01:15:26.872Z,96.05
2017-12-15T01:17:54.551Z,96.03
2017-12-15T01:20:22.189Z,95.99
2017-12-15T01:22:49.865Z,95.83
2017-12-15T01:25:17.565Z,95.77
2017-12-15T01:27:45.298Z,95.79
2017-12-15T01:30:12.926Z,95.86
2017-12-15T01:32:40.647Z,96.04
2017-12-15T01:35:08.276Z,96.25
2017-12-15T01:37:36.007Z,96.47
2017-12-15T01:40:03.691Z,96.65
2017-12-15T01:42:31.436Z,96.78
2017-12-15T01:44:59.138Z,96.89
2017-12-15T01:47:26.900Z,97.02
2017-12-15T01:49:54.512Z,97.10
2017-12-15T01:52:22.273Z,97.24
2017-12-15T01:54:49.893Z,97.38
2017-12-15T01:57:17.669Z,97.52
2017-12-15T01:59:45.296Z,97.63
2017-12-15T02:02:12.962Z,97.69
2017-12-15T02:04:40.639Z,97.67
2017-12-15T02:07:08.324Z,97.62
2017-12-15T02:09:36.053Z,97.49
2017-12-15T02:12:03.742Z,97.31
2017-12-15T02:14:31.467Z,97.09
2017-12-15T02:16:59.153Z,96.91
2017-12-15T02:19:26.901Z,96.69
2017-12-15T02:21:54.586Z,96.48
2017-12-15T02:24:22.311Z,96.27
2017-12-15T02:26:50.007Z,96.11
2017-12-15T02:29:17.668Z,95.91
2017-12-15T02:31:45.342Z,95.79
2017-12-15T02:34:13.007Z,95.68
2017-12-15T02:36:40.631Z,95.57
2017-12-15T02:39:08.291Z,95.47
2017-12-15T02:41:35.926Z,95.36
2017-12-15T02:44:03.663Z,95.28
2017-12-15T02:46:31.348Z,95.15
2017-12-15T02:48:59.070Z,95.04
2017-12-15T02:51:26.755Z,94.98
2017-12-15T02:53:54.471Z,94.92
2017-12-15T02:56:22.207Z,94.89
2017-12-15T02:58:49.932Z,94.87
2017-12-15T03:01:17.631Z,94.89
2017-12-15T03:03:45.368Z,94.96
2017-12-15T03:06:12.992Z,95.01
2017-12-15T03:08:40.732Z,95.09
2017-12-15T03:11:08.361Z,95.26
2017-12-15T03:13:35.986Z,95.40
2017-12-15T03:16:03.632Z,95.54
2017-12-15T03:18:31.316Z,95.65
2017-12-15T03:20:58.953Z,95.73
2017-12-15T03:23:26.630Z,95.75
2017-12-15T03:25:54.216Z,95.76
2017-12-15T03:28:21.853Z,95.80
2017-12-15T03:30:49.444Z,95.79
2017-12-15T03:33:17.085Z,95.82
2017-12-15T03:35:44.693Z,95.83
2017-12-15T03:38:12.317Z,95.89
2017-12-15T03:40:39.902Z,96.01
2017-12-15T03:43:07.589Z,96.21
2017-12-15T03:45:35.233Z,96.43
2017-12-15T03:48:02.900Z,96.67
2017-12-15T03:50:30.577Z,96.89
2017-12-15T03:52:58.260Z,97.14
2017-12-15T03:55:26.244Z,97.49
2017-12-15T03:57:53.955Z,97.73
2017-12-15T04:00:21.555Z,97.95
2017-12-15T04:02:49.192Z,98.13
2017-12-15T04:05:16.884Z,98.19
2017-12-15T04:07:44.479Z,98.18
2017-12-15T04:10:12.098Z,98.25
2017-12-15T04:12:39.736Z,98.44
2017-12-15T04:15:07.419Z,98.65
2017-12-15T04:17:35.050Z,98.79
2017-12-15T04:20:02.684Z,98.91
2017-12-15T04:22:30.323Z,98.98
2017-12-15T04:24:58.011Z,98.96
2017-12-15T04:27:25.658Z,98.90
2017-12-15T04:29:53.340Z,99.00
2017-12-15T04:32:20.977Z,99.19
2017-12-15T04:34:48.655Z,99.29
2017-12-15T04:37:16.302Z,99.49
2017-12-15T04:39:43.984Z,99.63
2017-12-15T04:42:11.571Z,99.73
2017-12-15T04:44:39.243Z,99.88
2017-12-15T04:47:06.838Z,100.00
2017-12-15T04:49:34.519Z,100.00
2017-12-15T04:52:02.158Z,100.00
2017-12-15T04:54:29.843Z,100.00
2017-12-15T04:56:57.546Z,100.00
2017-12-15T04:59:25.171Z,100.00
2017-12-15T05:01:52.818Z,100.00
2017-12-15T05:04:20.453Z,100.00
2017-12-15T05:06:48.095Z,100.00
2017-12-15T05:09:15.855Z,100.00
2017-12-15T05:11:43.543Z,100.00
2017-12-15T05:14:11.226Z,100.00
2017-12-15T05:16:38.861Z,100.00
2017-12-15T05:19:06.600Z,100.00
2017-12-15T05:21:34.286Z,100.00
2017-12-15T05:24:02.045Z,100.00
2017-12-15T05:26:29.745Z,100.00
2017-12-15T05:28:57.482Z,100.00
2017-12-15T05:31:25.113Z,100.00
2017-12-15T05:33:52.784Z,100.00
2017-12-15T05:36:20.481Z,100.00
2017-12-15T05:38:48.221Z,100.00
2017-12-15T05:41:15.909Z,100.00
2017-12-15T05:43:43.604Z,100.00
2017-12-15T05:46:11.272Z,100.00
2017-12-15T05:48:38.966Z,100.00
2017-12-15T05:51:06.710Z,100.00
2017-12-15T05:53:34.406Z,100.00
2017-12-15T05:56:03.086Z,100.00
2017-12-15T05:58:30.780Z,100.00
2017-12-15T06:00:58.530Z,100.00
2017-12-15T06:03:26.160Z,100.00
2017-12-15T06:05:53.889Z,100.00
2017-12-15T06:08:21.591Z,100.00
2017-12-15T06:10:49.346Z,100.00
2017-12-15T06:13:17.045Z,100.00
2017-12-15T06:15:44.787Z,100.00
2017-12-15T06:18:12.413Z,100.00
2017-12-15T06:20:40.145Z,100.00
2017-12-15T06:23:07.770Z,100.00
2017-12-15T06:25:35.496Z,100.00
2017-12-15T06:28:03.131Z,100.00
2017-12-15T06:30:30.877Z,100.00
2017-12-15T06:32:58.598Z,100.00
2017-12-15T06:35:26.342Z,100.00
2017-12-15T06:37:54.041Z,100.00
2017-12-15T06:40:21.708Z,100.00
2017-12-15T06:42:49.340Z,100.00
2017-12-15T06:45:17.082Z,100.00
2017-12-15T06:47:44.822Z,100.00
2017-12-15T06:50:12.504Z,100.00
2017-12-15T06:52:40.179Z,100.00
2017-12-15T06:55:07.843Z,100.00
2017-12-15T06:57:35.466Z,100.00
2017-12-15T07:00:03.456Z,100.00
2017-12-15T07:02:31.074Z,100.00
2017-12-15T07:04:58.750Z,100.00
2017-12-15T07:07:26.437Z,100.00
2017-12-15T07:09:54.113Z,100.00
2017-12-15T07:12:21.731Z,100.00
2017-12-15T07:14:49.473Z,100.00
2017-12-15T07:17:17.173Z,100.00
2017-12-15T07:19:45.731Z,100.00
2017-12-15T07:22:13.412Z,100.00
2017-12-15T07:24:41.048Z,100.00
2017-12-15T07:27:08.722Z,100.00
2017-12-15T07:29:36.349Z,100.00
2017-12-15T07:32:04.100Z,100.00
2017-12-15T07:34:31.730Z,100.00
2017-12-15T07:36:59.435Z,100.00
2017-12-15T07:39:27.166Z,100.00
2017-12-15T07:41:54.826Z,100.00
2017-12-15T07:44:22.468Z,100.00
2017-12-15T07:46:50.158Z,100.00
2017-12-15T07:49:17.878Z,100.00
2017-12-15T07:51:45.573Z,100.00
2017-12-15T07:54:13.213Z,100.00
2017-12-15T07:56:41.990Z,100.00
2017-12-15T07:59:09.612Z,100.00
2017-12-15T08:01:37.341Z,100.00
2017-12-15T08:04:05.045Z,100.00
2017-12-15T08:06:32.827Z,100.00
2017-12-15T08:09:00.519Z,100.00
2017-12-15T08:11:28.371Z,100.00
2017-12-15T08:13:56.014Z,100.00
2017-12-15T08:16:23.764Z,100.00
2017-12-15T08:18:51.428Z,100.00
2017-12-15T08:21:19.110Z,100.00
2017-12-15T08:23:46.771Z,100.00
2017-12-15T08:26:14.444Z,100.00
2017-12-15T08:28:42.077Z,100.00
2017-12-15T08:31:09.754Z,100.00
2017-12-15T08:33:37.518Z,100.00
2017-12-15T08:36:05.503Z,100.00
2017-12-15T08:38:33.294Z,100.00
2017-12-15T08:41:01.023Z,100.00
2017-12-15T08:43:28.734Z,100.00
2017-12-15T08:45:56.807Z,100.00
2017-12-15T08:48:24.538Z,100.00
2017-12-15T08:50:52.292Z,100.00
2017-12-15T08:53:19.997Z,100.00
2017-12-15T08:55:47.956Z,100.00
2017-12-15T08:58:15.627Z,100.00
2017-12-15T09:00:43.289Z,100.00
2017-12-15T09:03:11.054Z,100.00
2017-12-15T09:05:38.727Z,100.00
2017-12-15T09:08:06.469Z,100.00
2017-12-15T09:10:34.166Z,100.00
2017-12-15T09:13:02.015Z,100.00
2017-12-15T09:15:29.667Z,100.00
2017-12-15T09:17:57.430Z,100.00
2017-12-15T09:20:25.127Z,100.00
2017-12-15T09:22:52.878Z,100.00
2017-12-15T09:25:20.524Z,100.00
2017-12-15T09:27:48.276Z,100.00
2017-12-15T09:30:15.947Z,100.00
2017-12-15T09:32:43.708Z,100.00
2017-12-15T09:35:11.333Z,100.00
2017-12-15T09:37:39.101Z,100.00
2017-12-15T09:40:06.784Z,100.00
2017-12-15T09:42:34.547Z,100.00
2017-12-15T09:45:02.214Z,100.00
2017-12-15T09:47:30.049Z,100.00
2017-12-15T09:49:57.678Z,100.00
2017-12-15T09:52:25.358Z,100.00
2017-12-15T09:54:53.071Z,100.00
2017-12-15T09:57:20.844Z,99.88
2017-12-15T09:59:48.537Z,99.71
2017-12-15T10:02:16.274Z,99.61
2017-12-15T10:04:43.975Z,99.52
2017-12-15T10:07:11.702Z,99.49
2017-12-15T10:09:39.397Z,99.47
2017-12-15T10:12:07.158Z,99.45
2017-12-15T10:14:34.858Z,99.45
2017-12-15T10:17:02.613Z,99.45
2017-12-15T10:19:30.293Z,99.43
2017-12-15T10:21:57.976Z,99.41
2017-12-15T10:24:25.601Z,99.38
2017-12-15T10:26:53.312Z,99.34
2017-12-15T10:29:20.930Z,99.33
2017-12-15T10:31:48.592Z,99.30
2017-12-15T10:34:16.287Z,99.26
2017-12-15T10:36:44.078Z,99.21
2017-12-15T10:39:11.706Z,99.13
2017-12-15T10:41:39.386Z,99.02
2017-12-15T10:44:07.110Z,98.97
2017-12-15T10:46:34.800Z,98.94
2017-12-15T10:49:02.525Z,98.89
2017-12-15T10:51:30.237Z,98.84
2017-12-15T10:53:57.888Z,98.77
2017-12-15T10:56:25.611Z,98.60
2017-12-15T10:58:53.363Z,98.48
2017-12-15T11:01:21.061Z,98.37
2017-12-15T11:03:48.786Z,98.24
2017-12-15T11:06:16.468Z,98.15
2017-12-15T11:08:44.132Z,98.11
2017-12-15T11:11:11.862Z,98.05
2017-12-15T11:13:39.613Z,97.99
2017-12-15T11:16:07.334Z,97.95
2017-12-15T11:18:35.058Z,97.97
2017-12-15T11:21:02.741Z,97.91
2017-12-15T11:23:30.489Z,97.81
2017-12-15T11:25:58.182Z,97.70
2017-12-15T11:28:25.921Z,97.62
2017-12-15T11:30:53.608Z,97.59
2017-12-15T11:33:21.356Z,97.61
2017-12-15T11:35:49.042Z,97.65
2017-12-15T11:38:16.778Z,97.71
2017-12-15T11:40:44.467Z,97.81
2017-12-15T11:43:12.143Z,97.80
2017-12-15T11:45:39.763Z,97.77
2017-12-15T11:48:07.513Z,97.66
2017-12-15T11:50:35.160Z,97.77
2017-12-15T11:53:02.833Z,97.70
2017-12-15T11:55:30.568Z,97.59
2017-12-15T11:57:58.239Z,97.35
2017-12-15T12:00:25.928Z,97.21
2017-12-15T12:02:53.673Z,97.09
2017-12-15T12:05:21.368Z,97.13
2017-12-15T12:07:49.112Z,97.13
2017-12-15T12:10:16.763Z,97.07
2017-12-15T12:12:44.529Z,97.24
2017-12-15T12:15:12.225Z,97.32
2017-12-15T12:17:39.930Z,97.36
2017-12-15T12:20:07.610Z,97.32
2017-12-15T12:22:35.224Z,97.32
2017-12-15T12:25:02.965Z,97.37
2017-12-15T12:27:30.660Z,97.27
2017-12-15T12:29:58.415Z,97.03
2017-12-15T12:32:26.120Z,96.98
2017-12-15T12:34:54.271Z,96.68
2017-12-15T12:37:21.984Z,96.51
2017-12-15T12:39:49.720Z,96.50
2017-12-15T12:42:17.406Z,96.34
2017-12-15T12:44:45.115Z,96.12
2017-12-15T12:47:12.844Z,96.22
2017-12-15T12:49:40.631Z,96.03
2017-12-15T12:52:08.320Z,95.87
2017-12-15T12:54:36.067Z,95.73
2017-12-15T12:57:03.816Z,95.71
2017-12-15T12:59:31.599Z,95.58
2017-12-15T13:01:59.319Z,95.27
2017-12-15T13:04:26.994Z,95.20
2017-12-15T13:06:54.714Z,95.26
2017-12-15T13:09:22.469Z,95.22
2017-12-15T13:11:50.154Z,95.16
2017-12-15T13:14:17.942Z,95.23
2017-12-15T13:16:45.677Z,95.12
2017-12-15T13:19:13.351Z,95.09
2017-12-15T13:21:40.994Z,95.06
2017-12-15T13:24:08.814Z,94.95
2017-12-15T13:26:36.555Z,95.10
2017-12-15T13:29:04.303Z,94.96
2017-12-15T13:31:32.029Z,95.16
2017-12-15T13:33:59.797Z,95.10
2017-12-15T13:36:27.431Z,94.72
2017-12-15T13:38:55.193Z,94.84
2017-12-15T13:41:22.890Z,95.12
2017-12-15T13:43:50.664Z,95.26
2017-12-15T13:46:18.374Z,95.38
2017-12-15T13:48:46.055Z,95.10
2017-12-15T13:51:13.758Z,95.44
2017-12-15T13:53:41.509Z,95.49
2017-12-15T13:56:09.257Z,95.30
2017-12-15T13:58:36.936Z,95.32
2017-12-15T14:01:04.690Z,95.30
2017-12-15T14:03:32.383Z,95.52
2017-12-15T14:06:00.072Z,95.54
2017-12-15T14:08:27.719Z,95.50
2017-12-15T14:10:55.594Z,95.51
2017-12-15T14:13:23.300Z,95.36
2017-12-15T14:15:51.045Z,95.25
2017-12-15T14:18:18.737Z,95.33
2017-12-15T14:20:46.498Z,95.40
2017-12-15T14:23:14.209Z,95.47
2017-12-15T14:25:41.970Z,95.46
2017-12-15T14:28:09.592Z,95.46
2017-12-15T14:30:37.363Z,95.40
2017-12-15T14:33:05.090Z,95.28
2017-12-15T14:35:32.837Z,95.43
2017-12-15T14:38:00.520Z,95.56
2017-12-15T14:40:28.209Z,95.47
2017-12-15T14:42:55.914Z,95.35
2017-12-15T14:45:23.675Z,95.25
2017-12-15T14:47:51.368Z,95.34
2017-12-15T14:50:19.111Z,95.27
2017-12-15T14:52:46.800Z,95.34
2017-12-15T14:55:14.607Z,95.32
2017-12-15T14:57:42.350Z,95.34
2017-12-15T15:00:10.029Z,95.34
2017-12-15T15:02:37.720Z,95.45
2017-12-15T15:05:05.465Z,95.46
2017-12-15T15:07:33.095Z,95.45
2017-12-15T15:10:00.833Z,95.18
2017-12-15T15:12:28.593Z,95.11
2017-12-15T15:14:56.331Z,95.09
2017-12-15T15:17:24.015Z,95.09
2017-12-15T15:19:51.697Z,95.18
2017-12-15T15:22:19.404Z,95.30
2017-12-15T15:24:47.157Z,95.39
2017-12-15T15:27:14.849Z,95.42
2017-12-15T15:29:42.612Z,95.39
2017-12-15T15:32:10.318Z,95.43
2017-12-15T15:34:38.067Z,95.34
2017-12-15T15:37:05.770Z,95.20
2017-12-15T15:39:33.553Z,95.01
2017-12-15T15:42:01.239Z,95.07
2017-12-15T15:44:28.960Z,95.04
2017-12-15T15:46:56.709Z,94.89
2017-12-15T15:49:24.400Z,95.00
2017-12-15T15:51:52.177Z,95.06
2017-12-15T15:54:19.886Z,95.11
2017-12-15T15:56:47.672Z,95.08
2017-12-15T15:59:15.376Z,95.22
2017-12-15T16:01:43.115Z,95.20
2017-12-15T16:04:10.775Z,95.21
2017-12-15T16:06:38.525Z,95.22
2017-12-15T16:09:06.223Z,95.18
2017-12-15T16:11:33.992Z,95.22
2017-12-15T16:14:01.695Z,95.31
2017-12-15T16:16:29.378Z,95.38
2017-12-15T16:18:57.041Z,95.41
2017-12-15T16:21:24.725Z,95.35
2017-12-15T16:23:52.413Z,95.36
2017-12-15T16:26:20.105Z,95.50
2017-12-15T16:28:47.727Z,95.52
2017-12-15T16:31:15.422Z,95.52
2017-12-15T16:33:43.072Z,95.50
2017-12-15T16:36:10.851Z,95.58
2017-12-15T16:38:38.575Z,95.59
2017-12-15T16:41:06.350Z,95.64
2017-12-15T16:43:34.054Z,95.65
2017-12-15T16:46:01.801Z,95.77
2017-12-15T16:48:29.506Z,95.84
2017-12-15T16:50:57.244Z,95.88
2017-12-15T16:53:24.951Z,95.84
2017-12-15T16:55:52.766Z,95.87
2017-12-15T16:58:20.410Z,95.79
2017-12-15T17:00:48.096Z,95.72
2017-12-15T17:03:15.720Z,95.64
2017-12-15T17:05:43.472Z,95.53
2017-12-15T17:08:11.524Z,95.31
2017-12-15T17:10:39.222Z,94.93
2017-12-15T17:13:06.936Z,94.55
2017-12-15T17:15:34.691Z,94.59
2017-12-15T17:18:02.397Z,94.76
2017-12-15T17:20:30.127Z,94.83
2017-12-15T17:22:58.043Z,94.88
2017-12-15T17:25:25.783Z,94.71
2017-12-15T17:27:53.537Z,94.69
2017-12-15T17:30:21.242Z,94.67
2017-12-15T17:32:49.037Z,94.66
2017-12-15T17:35:16.788Z,94.54
2017-12-15T17:37:44.457Z,94.32
2017-12-15T17:40:12.108Z,94.43
2017-12-15T17:42:39.787Z,94.68
2017-12-15T17:45:07.432Z,94.52
2017-12-15T17:47:35.187Z,94.51
2017-12-15T17:50:03.224Z,94.78
2017-12-15T17:52:30.975Z,94.84
2017-12-15T17:54:58.601Z,94.79
2017-12-15T17:57:26.288Z,94.62
2017-12-15T17:59:54.088Z,94.68
2017-12-15T18:02:21.779Z,94.80
2017-12-15T18:04:49.432Z,94.98
2017-12-15T18:07:17.157Z,95.18
2017-12-15T18:09:44.941Z,95.30
2017-12-15T18:12:12.703Z,95.45
2017-12-15T18:14:40.351Z,95.43
2017-12-15T18:17:08.072Z,95.37
2017-12-15T18:19:35.836Z,95.39
2017-12-15T18:22:03.553Z,95.35
2017-12-15T18:24:31.207Z,95.34
2017-12-15T18:26:58.947Z,95.23
2017-12-15T18:29:26.607Z,95.27
2017-12-15T18:31:54.309Z,95.30
2017-12-15T18:34:21.955Z,95.37
2017-12-15T18:36:49.673Z,95.37
2017-12-15T18:39:17.315Z,95.27
2017-12-15T18:41:45.063Z,95.24
2017-12-15T18:44:12.783Z,95.25
2017-12-15T18:46:40.474Z,95.26
2017-12-15T18:49:08.162Z,95.27
2017-12-15T18:51:35.933Z,95.23
2017-12-15T18:54:03.579Z,95.25
2017-12-15T18:56:31.442Z,95.23
2017-12-15T18:58:59.177Z,95.24
2017-12-15T19:01:26.845Z,95.23
2017-12-15T19:03:54.552Z,95.24
2017-12-15T19:06:22.304Z,95.13
2017-12-15T19:08:50.058Z,95.04
2017-12-15T19:11:17.678Z,95.24
2017-12-15T19:13:45.361Z,95.30
2017-12-15T19:16:13.122Z,95.19
2017-12-15T19:18:40.809Z,95.11
2017-12-15T19:21:08.501Z,95.00
2017-12-15T19:23:36.200Z,95.01
2017-12-15T19:26:04.682Z,94.96
2017-12-15T19:28:32.488Z,94.81
2017-12-15T19:31:00.157Z,94.69
2017-12-15T19:33:27.858Z,94.70
2017-12-15T19:35:55.529Z,94.69
2017-12-15T19:38:23.286Z,94.66
2017-12-15T19:40:51.042Z,94.66
2017-12-15T19:43:18.796Z,94.66
2017-12-15T19:45:46.438Z,94.56
2017-12-15T19:48:14.120Z,94.50
2017-12-15T19:50:41.767Z,94.31
2017-12-15T19:53:09.454Z,94.27
2017-12-15T19:55:37.159Z,94.15
2017-12-15T19:58:04.924Z,94.12
2017-12-15T20:00:32.637Z,94.17
2017-12-15T20:03:00.476Z,94.20
2017-12-15T20:05:28.200Z,94.22
2017-12-15T20:07:56.045Z,93.74
2017-12-15T20:10:23.774Z,93.20
2017-12-15T20:12:51.532Z,93.34
2017-12-15T20:15:19.290Z,92.82
2017-12-15T20:17:47.064Z,92.72
2017-12-15T20:20:14.709Z,92.56
2017-12-15T20:22:42.400Z,92.60
2017-12-15T20:25:10.097Z,92.56
2017-12-15T20:27:37.828Z,92.76
2017-12-15T20:30:05.568Z,92.90
2017-12-15T20:32:33.257Z,92.95
2017-12-15T20:35:00.967Z,92.90
2017-12-15T20:37:28.706Z,92.63
2017-12-15T20:39:56.443Z,92.92
2017-12-15T20:42:24.088Z,92.97
2017-12-15T20:44:51.848Z,93.11
2017-12-15T20:47:19.468Z,92.96
2017-12-15T20:49:47.191Z,92.94
2017-12-15T20:52:14.947Z,93.05
2017-12-15T20:54:42.677Z,93.06
2017-12-15T20:57:10.446Z,92.81
2017-12-15T20:59:38.227Z,92.68
2017-12-15T21:02:05.924Z,92.64
2017-12-15T21:04:33.732Z,92.58
2017-12-15T21:07:01.442Z,92.57
2017-12-15T21:09:29.213Z,92.41
2017-12-15T21:11:56.914Z,92.26
2017-12-15T21:14:24.672Z,92.37
2017-12-15T21:16:52.346Z,92.31
2017-12-15T21:19:20.079Z,92.14
2017-12-15T21:21:47.708Z,92.09
2017-12-15T21:24:15.435Z,92.01
2017-12-15T21:26:43.055Z,92.28
2017-12-15T21:29:10.730Z,91.88
2017-12-15T21:31:38.408Z,91.90
2017-12-15T21:34:06.136Z,92.13
2017-12-15T21:36:33.784Z,92.05
2017-12-15T21:39:01.506Z,92.06
2017-12-15T21:41:29.195Z,92.22
2017-12-15T21:43:56.930Z,92.16
2017-12-15T21:46:24.610Z,92.14
2017-12-15T21:48:52.305Z,91.84
2017-12-15T21:51:20.052Z,92.08
2017-12-15T21:53:47.769Z,92.21
2017-12-15T21:56:15.426Z,92.18
2017-12-15T21:58:43.095Z,92.29
2017-12-15T22:01:10.817Z,92.16
2017-12-15T22:03:38.599Z,92.54
2017-12-15T22:06:06.292Z,92.71
2017-12-15T22:08:34.037Z,92.45
2017-12-15T22:11:01.676Z,92.56
2017-12-15T22:13:29.433Z,92.70
2017-12-15T22:15:57.117Z,92.89
2017-12-15T22:18:24.788Z,93.20
2017-12-15T22:20:52.582Z,93.25
2017-12-15T22:23:20.269Z,93.26
2017-12-15T22:25:47.928Z,92.98
2017-12-15T22:28:15.555Z,93.14
2017-12-15T22:30:43.242Z,93.22
2017-12-15T22:33:10.999Z,93.28
2017-12-15T22:35:38.660Z,93.36
2017-12-15T22:38:06.275Z,93.44
2017-12-15T22:40:33.977Z,93.51
2017-12-15T22:43:01.607Z,93.57
2017-12-15T22:45:29.351Z,93.57
2017-12-15T22:47:57.045Z,93.57
2017-12-15T22:50:24.725Z,93.58
2017-12-15T22:52:52.441Z,93.64
2017-12-15T22:55:20.233Z,93.71
2017-12-15T22:57:47.921Z,93.83
2017-12-15T23:00:15.641Z,93.87
2017-12-15T23:02:43.287Z,93.91
2017-12-15T23:05:10.949Z,93.89
2017-12-15T23:07:38.646Z,93.87
2017-12-15T23:10:07.313Z,93.88
2017-12-15T23:12:34.947Z,93.90
2017-12-15T23:15:02.718Z,93.95
2017-12-15T23:17:30.437Z,93.97
2017-12-15T23:19:58.156Z,94.04
2017-12-15T23:22:25.840Z,94.14
2017-12-15T23:24:53.612Z,94.25
2017-12-15T23:27:21.299Z,94.31
2017-12-15T23:29:52.034Z,94.43
2017-12-15T23:32:19.673Z,94.54
2017-12-15T23:34:47.450Z,94.51
2017-12-15T23:37:15.090Z,94.43
2017-12-15T23:39:42.826Z,94.38
2017-12-15T23:42:10.480Z,94.31
2017-12-15T23:44:38.208Z,94.19
2017-12-15T23:47:05.886Z,94.27
2017-12-15T23:49:33.599Z,94.32
2017-12-15T23:52:01.280Z,94.37
2017-12-15T23:54:40.629Z,94.55
2017-12-15T23:57:08.272Z,94.71
2017-12-15T23:59:36.843Z,94.74
